Murray, Idaho
Current Conditions -  °F | °C
As of 5:01 AM on Wednesday 26 Nov 2014 (Local Time) from KMLP Reporting Station
Light Snow Light Snow  
Wind Chill: 29°   Ceiling: 300
Heat Index: 34°   Visibility: 0.75mi
Dew Point: 31°   Wind: 6mph
Humidity: 89%   Direction: NA
Pressure: 30.07"   Gusts: NA
Location:  47.63°N, 115.86°W
Report Text: KMLP 261301Z AUTO VRB05KT 3/4SM -SN BR VV003 01/M01 A3007 RMK AO2 FZRAE1255SNB1255 P0000 T00111006
Loading
Personal Weather Stations






























Interactive Weather Map New forecast layout! Learn more

10-Day Weather Forecast

Advertisements
Track Severe Weather on mobile